Time;durP1;ratioP1;P1;durP2;ratioP2;P2;SDS_P1;SDS_P2;PMS_P1;PMS_P2;Temp;Humidity;BMP_temperature;BMP_pressure;BME280_temperature;BME280_humidity;BME280_pressure;Samples;Min_cycle;Max_cycle;Signal;HPM_P1;HPM_P2
2022/07/19 00:04:55;;;;;;;2.55;1.90;;;;;;;20.05;51.06;97487.53;10176674;29;20056;-45
2022/07/19 00:10:16;;;;;;;2.60;1.80;;;;;;;20.04;51.00;97492.16;10175355;29;20060;-46
2022/07/19 00:15:36;;;;;;;2.10;1.90;;;;;;;20.05;51.01;97490.22;10176228;29;20060;-45
2022/07/19 00:20:55;;;;;;;3.35;1.98;;;;;;;20.03;51.00;97487.84;10174368;29;20067;-46
2022/07/19 00:26:15;;;;;;;3.88;2.08;;;;;;;20.03;50.94;97489.75;10187262;29;20063;-48
2022/07/19 00:31:34;;;;;;;1.65;1.55;;;;;;;20.03;50.94;97484.34;10175391;29;20048;-46
2022/07/19 00:36:54;;;;;;;3.15;1.85;;;;;;;20.01;50.82;97478.44;10174449;29;20421;-45
2022/07/19 00:42:15;;;;;;;2.60;1.77;;;;;;;20.01;50.89;97478.44;10173889;29;20064;-46
2022/07/19 00:47:34;;;;;;;3.05;1.80;;;;;;;20.02;50.85;97480.03;10173764;29;20381;-46
2022/07/19 00:53:00;;;;;;;1.98;1.70;;;;;;;20.01;50.96;97478.44;10172494;29;20449;-46
2022/07/19 00:58:20;;;;;;;3.80;1.77;;;;;;;20.02;50.81;97482.75;10186092;29;20056;-48
2022/07/19 01:03:40;;;;;;;2.67;1.80;;;;;;;20.00;50.66;97482.25;10166641;29;20056;-56
2022/07/19 01:08:59;;;;;;;3.42;1.80;;;;;;;19.99;50.62;97483.34;10173295;29;20056;-56
2022/07/19 01:14:18;;;;;;;2.42;1.73;;;;;;;19.99;50.56;97489.56;10173641;29;20071;-56
2022/07/19 01:19:38;;;;;;;2.20;1.90;;;;;;;19.97;50.41;97483.66;10161600;29;20081;-56
2022/07/19 01:24:57;;;;;;;2.95;1.90;;;;;;;19.95;50.55;97492.09;10185566;29;20048;-56
2022/07/19 01:30:19;;;;;;;2.13;1.50;;;;;;;19.95;50.54;97489.41;10172520;29;20064;-56
2022/07/19 01:35:38;;;;;;;3.08;1.70;;;;;;;19.95;50.40;97489.41;10176308;29;20182;-56
2022/07/19 01:40:58;;;;;;;2.45;1.77;;;;;;;19.95;50.33;97481.28;10185953;29;20052;-56
2022/07/19 01:46:18;;;;;;;2.65;1.60;;;;;;;19.93;50.22;97480.81;10193034;29;20052;-56
2022/07/19 01:51:37;;;;;;;2.25;1.63;;;;;;;19.95;50.21;97480.47;10180531;29;20063;-56
2022/07/19 01:56:56;;;;;;;2.90;1.65;;;;;;;19.93;50.26;97467.28;10192935;29;20181;-55
2022/07/19 02:02:15;;;;;;;1.90;1.65;;;;;;;19.92;50.18;97470.28;10205467;29;20420;-54
2022/07/19 02:07:35;;;;;;;3.97;1.67;;;;;;;19.92;49.91;97476.50;10179826;29;20059;-56
2022/07/19 02:12:54;;;;;;;2.47;1.85;;;;;;;19.92;49.96;97467.59;10179595;29;20079;-55
2022/07/19 02:18:14;;;;;;;2.20;1.42;;;;;;;19.92;49.95;97471.09;10204897;29;20412;-56
2022/07/19 02:23:34;;;;;;;2.47;1.60;;;;;;;19.92;49.96;97462.97;10204612;29;20523;-56
2022/07/19 02:28:53;;;;;;;4.22;1.88;;;;;;;19.90;50.02;97467.88;10187050;29;20531;-55
2022/07/19 02:34:13;;;;;;;1.95;1.60;;;;;;;19.90;49.86;97470.59;10167857;29;20071;-55
2022/07/19 02:39:32;;;;;;;2.20;1.67;;;;;;;19.90;49.96;97464.41;10186365;29;20067;-56
2022/07/19 02:44:51;;;;;;;4.18;1.80;;;;;;;19.89;49.91;97468.97;10191917;29;20100;-55
2022/07/19 02:50:10;;;;;;;2.08;1.63;;;;;;;19.89;49.97;97476.31;10190929;29;20055;-56
2022/07/19 02:55:31;;;;;;;2.35;1.65;;;;;;;19.87;49.94;97468.50;10196879;29;20063;-56
2022/07/19 03:00:50;;;;;;;2.35;1.63;;;;;;;19.86;50.01;97469.63;10198417;29;20060;-55
2022/07/19 03:06:10;;;;;;;2.10;1.60;;;;;;;19.85;50.08;97468.00;10177894;29;20429;-55
2022/07/19 03:11:30;;;;;;;3.38;1.77;;;;;;;19.86;50.07;97466.13;10177455;29;20053;-56
2022/07/19 03:16:49;;;;;;;2.95;1.80;;;;;;;19.84;50.20;97469.13;10177556;29;20115;-54
2022/07/19 03:22:08;;;;;;;3.00;1.77;;;;;;;19.84;50.21;97474.53;10176550;29;20056;-55
2022/07/19 03:27:28;;;;;;;2.20;1.92;;;;;;;19.83;50.29;97480.25;10176121;29;20551;-56
2022/07/19 03:32:47;;;;;;;2.40;1.63;;;;;;;19.82;50.31;97476.75;10176589;29;20064;-56
2022/07/19 03:38:07;;;;;;;2.22;1.58;;;;;;;19.83;50.37;97481.03;10189443;29;20063;-56
2022/07/19 03:43:26;;;;;;;3.53;1.90;;;;;;;19.81;50.23;97480.56;10189239;29;20075;-56
2022/07/19 03:48:45;;;;;;;2.63;1.60;;;;;;;19.82;50.28;97495.69;10176157;29;20108;-56
2022/07/19 03:54:04;;;;;;;5.65;1.85;;;;;;;19.81;50.18;97496.78;10175943;29;20071;-56
2022/07/19 03:59:24;;;;;;;2.83;1.50;;;;;;;19.80;50.06;97497.91;10174920;29;20053;-56
2022/07/19 04:04:43;;;;;;;2.55;1.60;;;;;;;19.81;50.04;97502.19;10188346;29;20496;-55
2022/07/19 04:10:03;;;;;;;2.92;1.50;;;;;;;19.77;50.12;97500.41;10164945;29;20404;-54
2022/07/19 04:15:22;;;;;;;4.78;1.95;;;;;;;19.62;50.43;97498.84;10175219;29;20060;-56
2022/07/19 04:20:42;;;;;;;3.60;1.77;;;;;;;19.43;51.16;97493.63;10174798;29;20052;-55
2022/07/19 04:26:01;;;;;;;2.03;1.80;;;;;;;19.31;51.52;97499.59;10174177;29;20056;-56
2022/07/19 04:31:20;;;;;;;2.92;1.60;;;;;;;19.27;51.95;97498.59;10173552;29;20059;-55
2022/07/19 04:36:39;;;;;;;2.30;1.67;;;;;;;19.34;51.93;97499.75;10194249;29;20449;-56
2022/07/19 04:41:58;;;;;;;4.05;1.77;;;;;;;19.44;51.93;97487.91;10176177;29;20410;-57
2022/07/19 04:47:17;;;;;;;2.72;1.80;;;;;;;19.26;53.20;97491.59;10174095;29;20067;-55
2022/07/19 04:52:37;;;;;;;3.05;1.90;;;;;;;19.38;52.75;97499.16;10173594;29;20115;-56
2022/07/19 04:57:56;;;;;;;3.30;1.73;;;;;;;19.51;52.36;97493.69;10173137;29;20084;-55
2022/07/19 05:03:15;;;;;;;3.92;1.88;;;;;;;19.58;52.40;97490.53;10178490;29;20074;-56
2022/07/19 05:08:35;;;;;;;3.45;1.83;;;;;;;19.63;52.47;97486.94;10178773;29;20426;-55
2022/07/19 05:13:54;;;;;;;4.70;2.00;;;;;;;19.66;52.38;97484.41;10173634;29;20071;-55
2022/07/19 05:19:13;;;;;;;4.97;1.95;;;;;;;19.67;52.51;97482.50;10163065;29;20056;-56
2022/07/19 05:24:33;;;;;;;9.52;3.03;;;;;;;19.66;52.58;97480.91;10160524;29;20056;-56
2022/07/19 05:29:52;;;;;;;10.50;2.50;;;;;;;19.67;52.58;97479.81;10172422;29;20076;-56
2022/07/19 05:35:12;;;;;;;5.28;2.40;;;;;;;19.66;52.57;97478.19;10188203;29;20051;-56
2022/07/19 05:40:31;;;;;;;5.03;2.10;;;;;;;19.68;52.77;97482.22;10183857;29;20504;-56
2022/07/19 05:45:51;;;;;;;3.33;1.92;;;;;;;19.67;52.83;97480.59;10185194;29;20422;-56
2022/07/19 05:51:11;;;;;;;3.67;2.10;;;;;;;19.69;52.81;97485.69;10172030;29;20493;-56
2022/07/19 05:56:30;;;;;;;4.55;2.05;;;;;;;19.70;52.81;97481.91;10190694;29;20064;-56
2022/07/19 06:01:51;;;;;;;6.18;2.17;;;;;;;19.71;53.02;97481.59;10172559;29;20052;-56
2022/07/19 06:07:10;;;;;;;5.15;2.03;;;;;;;19.72;53.08;97491.31;10172489;29;20139;-56
2022/07/19 06:12:29;;;;;;;3.78;2.10;;;;;;;19.72;53.24;97483.22;10172131;29;20063;-55
2022/07/19 06:17:49;;;;;;;4.32;2.08;;;;;;;19.73;53.28;97484.78;10162405;29;20060;-56
2022/07/19 06:23:08;;;;;;;5.65;2.00;;;;;;;19.74;53.27;97491.81;10172823;29;20059;-56
2022/07/19 06:28:28;;;;;;;2.50;1.90;;;;;;;19.74;53.23;97483.69;10184564;29;20064;-56
2022/07/19 06:33:50;;;;;;;4.47;2.20;;;;;;;19.75;52.89;97498.00;10191341;29;20564;-56
2022/07/19 06:39:09;;;;;;;4.82;1.77;;;;;;;19.75;53.06;97496.09;10177150;29;20151;-56
2022/07/19 06:44:28;;;;;;;3.83;2.10;;;;;;;19.75;53.09;97490.69;10178110;29;20067;-56
2022/07/19 06:49:48;;;;;;;5.00;2.22;;;;;;;19.75;53.12;97493.41;10178160;29;20061;-55
2022/07/19 06:55:09;;;;;;;4.55;2.00;;;;;;;19.77;53.05;97495.00;10177983;29;20064;-56
2022/07/19 07:00:29;;;;;;;4.60;2.10;;;;;;;19.77;53.14;97495.81;10178002;29;20052;-55
2022/07/19 07:05:49;;;;;;;3.00;1.90;;;;;;;19.77;53.12;97498.50;10177337;29;20064;-56
2022/07/19 07:11:08;;;;;;;3.25;1.85;;;;;;;19.78;53.17;97494.72;10177472;29;20056;-56
2022/07/19 07:16:28;;;;;;;2.58;2.00;;;;;;;19.78;53.20;97496.59;10177342;29;20067;-56
2022/07/19 07:21:48;;;;;;;2.83;2.00;;;;;;;19.79;53.28;97496.28;10177285;29;20104;-56
2022/07/19 07:27:08;;;;;;;4.03;1.88;;;;;;;19.78;53.27;97489.31;10176757;29;20067;-56
2022/07/19 07:32:27;;;;;;;4.22;2.10;;;;;;;19.78;53.30;97494.72;10175426;29;20064;-56
2022/07/19 07:37:46;;;;;;;3.20;1.80;;;;;;;19.79;53.43;97490.88;10176677;29;20056;-56
2022/07/19 07:43:06;;;;;;;3.00;1.75;;;;;;;19.79;53.42;97480.06;10176297;29;20063;-55
2022/07/19 07:48:26;;;;;;;2.95;1.98;;;;;;;19.81;53.34;97488.66;10176104;29;20052;-56
2022/07/19 07:53:45;;;;;;;2.35;1.58;;;;;;;19.82;53.48;97486.78;10164304;29;20067;-56
2022/07/19 07:59:04;;;;;;;2.97;1.80;;;;;;;19.81;53.60;97488.66;10175695;29;20071;-56
2022/07/19 08:04:24;;;;;;;3.95;1.70;;;;;;;19.82;53.58;97481.38;10175961;29;20064;-56
2022/07/19 08:09:44;;;;;;;2.28;1.67;;;;;;;19.82;53.53;97486.78;10175398;29;20063;-56
2022/07/19 08:15:05;;;;;;;2.20;1.63;;;;;;;19.84;53.44;97484.56;10175511;29;20063;-56
2022/07/19 08:20:25;;;;;;;2.90;1.90;;;;;;;19.83;53.60;97480.25;10174714;29;20057;-56
2022/07/19 08:25:44;;;;;;;2.28;1.70;;;;;;;19.82;53.57;97479.47;10174705;29;20083;-56
2022/07/19 08:31:04;;;;;;;2.33;1.70;;;;;;;19.83;53.60;97470.22;10173732;29;20139;-56
2022/07/19 08:36:23;;;;;;;2.53;1.90;;;;;;;19.83;53.59;97470.22;10174537;29;20063;-55
2022/07/19 08:41:44;;;;;;;2.53;1.70;;;;;;;19.84;53.65;97458.31;10171459;29;20147;-56
2022/07/19 08:47:05;;;;;;;3.05;1.70;;;;;;;19.83;53.76;97464.81;10172792;29;20056;-55
2022/07/19 08:52:25;;;;;;;2.20;1.73;;;;;;;19.85;53.67;97456.41;10163566;29;20059;-56
2022/07/19 08:57:57;;;;;;;1.80;1.50;;;;;;;19.85;53.80;97464.50;10173705;29;20056;-56
2022/07/19 09:03:16;;;;;;;2.08;1.77;;;;;;;19.85;53.72;97469.94;10173127;29;20060;-56
2022/07/19 09:08:44;;;;;;;1.90;1.50;;;;;;;19.85;53.78;97464.50;10169963;29;20123;-56
2022/07/19 09:14:08;;;;;;;2.40;1.70;;;;;;;19.84;53.77;97463.72;10172862;29;20066;-55
2022/07/19 09:19:30;;;;;;;2.17;1.70;;;;;;;19.85;53.90;97456.41;10173340;29;20673;-56
2022/07/19 09:24:50;;;;;;;2.55;1.65;;;;;;;19.85;53.72;97465.31;10173613;29;20135;-56
2022/07/19 09:30:10;;;;;;;1.88;1.50;;;;;;;19.86;53.82;97458.81;10177800;29;20452;-55
2022/07/19 09:35:50;;;;;;;1.63;1.52;;;;;;;19.86;53.95;97455.31;10172680;29;20132;-56
2022/07/19 09:41:18;;;;;;;2.50;1.60;;;;;;;19.86;53.94;97460.72;10164854;29;20532;-56
2022/07/19 09:46:45;;;;;;;3.10;1.38;;;;;;;19.87;54.14;97454.97;10185601;29;20127;-56
2022/07/19 09:52:05;;;;;;;3.05;1.60;;;;;;;19.87;54.04;97449.56;10157637;29;20523;-56
2022/07/19 09:57:25;;;;;;;2.05;1.30;;;;;;;19.86;54.07;97453.41;10178447;29;20059;-56
2022/07/19 10:02:51;;;;;;;2.55;1.42;;;;;;;19.88;54.17;97447.69;10180197;29;20115;-55
2022/07/19 10:08:10;;;;;;;2.25;1.50;;;;;;;19.88;54.17;97442.28;10178917;29;20523;-56
2022/07/19 10:13:30;;;;;;;1.33;1.20;;;;;;;19.87;54.24;97441.47;10179221;29;20063;-53
2022/07/19 10:19:16;;;;;;;2.22;1.50;;;;;;;19.88;54.28;97443.06;10180028;29;20063;-56
2022/07/19 10:24:44;;;;;;;2.50;1.48;;;;;;;19.88;54.24;97431.47;10144024;29;20064;-56
2022/07/19 10:30:09;;;;;;;1.37;1.27;;;;;;;19.88;54.36;97429.53;10184164;29;20048;-56
2022/07/19 10:35:30;;;;;;;31.65;2.70;;;;;;;19.87;54.49;97427.94;10190208;29;20048;-56
2022/07/19 10:40:56;;;;;;;11.93;4.57;;;;;;;19.88;54.73;97432.25;10178782;29;20087;-56
2022/07/19 10:46:15;;;;;;;7.32;2.33;;;;;;;19.88;54.88;97432.25;10178584;29;20083;-56
2022/07/19 10:51:35;;;;;;;3.75;1.98;;;;;;;19.89;54.86;97428.41;10190770;29;20048;-56
2022/07/19 10:56:58;;;;;;;5.90;1.80;;;;;;;19.90;55.03;97421.13;10178263;29;20107;-56
2022/07/19 11:02:22;;;;;;;6.85;2.15;;;;;;;19.89;55.04;97423.00;10178195;29;20079;-56
2022/07/19 11:07:48;;;;;;;5.30;1.55;;;;;;;19.90;55.21;97415.72;10186596;29;20059;-56
2022/07/19 11:13:08;;;;;;;5.20;1.48;;;;;;;19.90;55.32;97413.03;10190126;29;20064;-56
2022/07/19 11:18:27;;;;;;;3.30;1.30;;;;;;;19.91;55.03;97417.31;10176812;29;20063;-56
2022/07/19 11:23:47;;;;;;;1.33;1.20;;;;;;;19.90;54.95;97411.09;10177268;29;20063;-55
2022/07/19 11:29:06;;;;;;;2.13;1.27;;;;;;;19.90;54.71;97416.50;10176528;29;20369;-52
2022/07/19 11:34:27;;;;;;;2.95;1.42;;;;;;;19.90;54.41;97400.28;10175191;29;20115;-56
2022/07/19 11:39:49;;;;;;;3.80;1.35;;;;;;;19.91;54.15;97398.38;10189213;29;20401;-56
2022/07/19 11:45:15;;;;;;;2.13;1.20;;;;;;;19.90;54.35;97397.59;10176529;29;20424;-56
2022/07/19 11:50:35;;;;;;;1.58;1.17;;;;;;;19.83;53.21;97399.13;10175199;29;20059;-56
2022/07/19 11:55:55;;;;;;;2.90;1.40;;;;;;;19.82;54.45;97390.25;10205473;29;20048;-57
2022/07/19 12:01:23;;;;;;;3.00;1.30;;;;;;;19.82;53.76;97390.25;10176241;29;20135;-57
2022/07/19 12:06:48;;;;;;;2.42;1.23;;;;;;;19.81;54.58;97383.22;10173471;29;20056;-56
2022/07/19 12:12:16;;;;;;;2.00;1.40;;;;;;;19.82;54.48;97384.03;10175332;29;20052;-56
2022/07/19 12:17:35;;;;;;;2.63;1.30;;;;;;;19.79;54.10;97374.63;10180270;29;20060;-56
2022/07/19 12:22:54;;;;;;;1.90;1.17;;;;;;;19.78;55.05;97373.03;10191794;29;20056;-56
2022/07/19 12:28:14;;;;;;;2.25;1.25;;;;;;;19.81;55.24;97377.81;10174439;29;20063;-57
2022/07/19 12:33:33;;;;;;;4.60;1.60;;;;;;;19.78;55.13;97375.75;10191000;29;20048;-56
2022/07/19 12:38:53;;;;;;;4.75;1.60;;;;;;;19.79;55.30;97371.13;10187032;29;20074;-56
2022/07/19 12:44:12;;;;;;;3.58;1.55;;;;;;;19.78;54.61;97362.22;10174241;29;20123;-56
2022/07/19 12:49:48;;;;;;;6.70;1.70;;;;;;;19.77;55.29;97360.63;10173645;29;20103;-57
2022/07/19 12:55:08;;;;;;;4.40;1.65;;;;;;;19.79;55.35;97349.50;10173628;29;20056;-56
2022/07/19 13:00:28;;;;;;;4.28;1.88;;;;;;;19.78;54.34;97351.41;10164711;29;20389;-57
2022/07/19 13:05:48;;;;;;;6.18;2.08;;;;;;;19.77;55.54;97357.91;10173672;29;20056;-56
2022/07/19 13:11:07;;;;;;;7.78;2.05;;;;;;;19.78;55.34;97351.41;10173433;29;20052;-57
2022/07/19 13:16:26;;;;;;;5.63;2.38;;;;;;;19.81;55.27;97350.78;10161940;29;20064;-57
2022/07/19 13:21:45;;;;;;;5.38;2.08;;;;;;;19.78;55.18;97347.91;10173212;29;20056;-57
2022/07/19 13:27:05;;;;;;;10.07;2.45;;;;;;;19.78;55.16;97343.31;10173272;29;20056;-56
2022/07/19 13:32:24;;;;;;;6.25;2.15;;;;;;;19.81;55.41;97339.97;10197519;29;20052;-55
2022/07/19 13:37:43;;;;;;;6.10;2.22;;;;;;;19.77;54.85;97332.81;10186085;29;20048;-56
2022/07/19 13:43:03;;;;;;;6.50;2.30;;;;;;;19.78;55.41;97327.09;10198504;29;20044;-57
2022/07/19 13:48:22;;;;;;;7.63;2.38;;;;;;;19.81;55.56;97328.38;10184852;29;20071;-57
2022/07/19 13:53:41;;;;;;;6.38;2.55;;;;;;;19.77;54.81;97325.47;10197324;29;20051;-56
2022/07/19 13:59:01;;;;;;;5.00;2.42;;;;;;;19.80;56.03;97318.63;10189071;29;20063;-56
2022/07/19 14:04:20;;;;;;;4.57;2.03;;;;;;;19.81;55.97;97318.34;10185424;29;20439;-56
2022/07/19 14:09:40;;;;;;;4.00;1.98;;;;;;;19.78;54.81;97308.16;10185127;29;20051;-57
2022/07/19 14:14:59;;;;;;;4.88;2.13;;;;;;;19.78;54.99;97305.47;10185943;29;20064;-56
2022/07/19 14:20:18;;;;;;;6.63;2.17;;;;;;;19.82;55.76;97298.31;10181620;29;20056;-54
2022/07/19 14:25:38;;;;;;;6.40;2.15;;;;;;;19.85;56.20;97296.88;10186742;29;20044;-57
2022/07/19 14:30:58;;;;;;;5.30;1.90;;;;;;;19.88;56.21;97294.34;10180840;29;20056;-57
2022/07/19 14:36:17;;;;;;;4.53;2.10;;;;;;;19.90;56.43;97294.84;10181402;29;20064;-57
2022/07/19 14:41:36;;;;;;;3.45;1.88;;;;;;;19.91;56.74;97285.59;10180956;29;20064;-55
2022/07/19 14:46:56;;;;;;;5.88;1.85;;;;;;;19.93;56.87;97283.41;10178452;29;20131;-56
2022/07/19 14:52:15;;;;;;;8.93;1.83;;;;;;;19.95;57.17;97281.19;10178376;29;20059;-57
2022/07/19 14:57:35;;;;;;;4.15;1.73;;;;;;;19.97;57.41;97277.34;10190690;29;20060;-56
2022/07/19 15:02:54;;;;;;;4.88;1.55;;;;;;;19.98;57.48;97273.53;10177981;29;20418;-55
2022/07/19 15:08:14;;;;;;;3.83;1.92;;;;;;;19.97;57.53;97269.22;10165823;29;20086;-56
2022/07/19 15:13:34;;;;;;;4.65;1.40;;;;;;;19.96;57.44;97271.16;10177727;29;20055;-56
2022/07/19 15:18:54;;;;;;;5.20;1.63;;;;;;;19.97;57.39;97271.94;10176849;29;20060;-55
2022/07/19 15:24:13;;;;;;;2.90;1.50;;;;;;;19.96;57.49;97268.44;10177130;29;20092;-53
2022/07/19 15:29:32;;;;;;;2.72;1.50;;;;;;;19.97;57.57;97271.94;10166645;29;20056;-55
2022/07/19 15:34:52;;;;;;;4.65;1.73;;;;;;;20.00;57.74;97260.50;10176711;29;20052;-56
2022/07/19 15:40:12;;;;;;;5.28;1.58;;;;;;;20.01;57.60;97260.16;10172224;29;20412;-55
2022/07/19 15:45:32;;;;;;;2.60;1.70;;;;;;;20.00;57.66;97249.69;10176749;29;20068;-55
2022/07/19 15:50:51;;;;;;;2.90;1.60;;;;;;;19.99;57.61;97256.97;10188529;29;20391;-54
2022/07/19 15:56:10;;;;;;;4.18;1.55;;;;;;;19.99;57.60;97243.47;10173552;29;20056;-55
2022/07/19 16:01:29;;;;;;;1.92;1.50;;;;;;;20.01;57.71;97241.22;10188530;29;20056;-60
2022/07/19 16:06:49;;;;;;;2.70;1.40;;;;;;;20.00;57.79;97228.84;10175046;29;20540;-52
2022/07/19 16:12:09;;;;;;;2.67;1.38;;;;;;;20.01;57.71;97225.00;10175516;29;20064;-55
2022/07/19 16:17:31;;;;;;;2.97;1.50;;;;;;;20.01;57.68;97226.94;10171624;29;20520;-54
2022/07/19 16:22:51;;;;;;;2.03;1.30;;;;;;;20.02;57.67;97223.91;10175233;29;20064;-55
2022/07/19 16:28:11;;;;;;;2.67;1.50;;;;;;;20.02;57.74;97223.13;10174116;29;20465;-55
2022/07/19 16:33:30;;;;;;;4.78;1.77;;;;;;;20.02;57.77;97217.72;10172619;29;20087;-53
2022/07/19 16:38:50;;;;;;;2.78;1.17;;;;;;;20.03;57.71;97222.00;10170060;29;20508;-56
2022/07/19 16:44:09;;;;;;;3.05;1.50;;;;;;;20.03;57.76;97222.81;10186907;29;20110;-56
2022/07/19 16:49:30;;;;;;;2.78;1.70;;;;;;;20.03;57.78;97217.41;10173820;29;20068;-56
2022/07/19 16:54:49;;;;;;;2.55;1.25;;;;;;;20.04;57.88;97223.59;10156207;29;20060;-56
2022/07/19 17:00:09;;;;;;;2.10;1.30;;;;;;;20.06;57.85;97227.56;10173645;29;20090;-56
2022/07/19 17:05:29;;;;;;;1.83;1.10;;;;;;;20.07;57.76;97233.75;10173331;29;20052;-56
2022/07/19 17:10:48;;;;;;;2.22;1.27;;;;;;;20.07;57.76;97231.88;10186064;29;20107;-55
2022/07/19 17:16:08;;;;;;;1.40;1.00;;;;;;;20.08;57.85;97229.97;10173013;29;20083;-56
2022/07/19 17:21:28;;;;;;;2.03;1.30;;;;;;;20.09;58.03;97235.06;10162807;29;20059;-56
2022/07/19 17:26:48;;;;;;;1.25;1.15;;;;;;;20.08;58.07;97228.03;10173174;29;20063;-54
2022/07/19 17:32:08;;;;;;;2.47;1.05;;;;;;;20.10;58.02;97231.22;10168063;29;20491;-56
2022/07/19 17:37:27;;;;;;;2.80;1.20;;;;;;;20.09;58.02;97232.34;10173377;29;20583;-55
2022/07/19 17:42:46;;;;;;;1.52;1.20;;;;;;;20.10;58.09;97230.44;10173008;29;20060;-56
2022/07/19 17:48:06;;;;;;;1.25;1.10;;;;;;;20.10;58.16;97238.56;10172635;29;20071;-57
2022/07/19 17:53:26;;;;;;;1.98;1.30;;;;;;;20.12;58.25;97233.63;10172604;29;20067;-56
2022/07/19 17:58:45;;;;;;;2.83;1.42;;;;;;;20.14;58.27;97231.41;10185291;29;20111;-55
2022/07/19 18:04:05;;;;;;;2.42;1.20;;;;;;;20.14;58.27;97228.69;10185179;29;20052;-55
2022/07/19 18:09:24;;;;;;;6.40;1.50;;;;;;;20.15;58.27;97233.78;10172316;29;20056;-55
2022/07/19 18:14:43;;;;;;;5.25;1.48;;;;;;;20.14;58.19;97226.00;10172318;29;20060;-56
2022/07/19 18:20:04;;;;;;;2.53;1.48;;;;;;;20.14;58.12;97226.00;10179735;29;20083;-55
2022/07/19 18:25:23;;;;;;;4.68;1.73;;;;;;;20.14;58.18;97226.78;10179448;29;20119;-55
2022/07/19 18:30:43;;;;;;;2.85;1.40;;;;;;;20.13;58.09;97229.78;10181019;29;20064;-56
2022/07/19 18:36:02;;;;;;;2.15;1.60;;;;;;;20.13;58.19;97229.78;10167291;29;20056;-56
2022/07/19 18:41:22;;;;;;;2.10;1.60;;;;;;;20.14;58.09;97226.78;10164907;29;20057;-55
2022/07/19 18:46:41;;;;;;;2.63;1.70;;;;;;;20.14;58.00;97223.28;10191214;29;20059;-56
2022/07/19 18:52:00;;;;;;;2.33;1.55;;;;;;;20.14;58.14;97234.09;10178166;29;20082;-56
2022/07/19 18:57:20;;;;;;;2.88;1.77;;;;;;;20.14;58.03;97234.09;10195233;29;20063;-55
2022/07/19 19:02:39;;;;;;;3.28;1.80;;;;;;;20.15;58.01;97230.31;10178004;29;20060;-55
2022/07/19 19:07:58;;;;;;;2.85;1.88;;;;;;;20.15;58.13;97236.50;10190457;29;20055;-56
2022/07/19 19:13:19;;;;;;;3.42;1.60;;;;;;;20.16;58.18;97234.56;10177036;29;20508;-56
2022/07/19 19:18:39;;;;;;;3.40;1.70;;;;;;;20.16;58.13;97240.00;10177415;29;20059;-55
2022/07/19 19:23:58;;;;;;;1.73;1.60;;;;;;;20.16;58.11;97248.09;10190048;29;20055;-56
2022/07/19 19:29:18;;;;;;;2.13;1.70;;;;;;;20.16;58.12;97248.09;10177148;29;20079;-56
2022/07/19 19:40:16;;;;;;;3.55;1.75;;;;;;;20.18;58.30;97256.69;10189173;29;20460;-54
2022/07/19 19:45:37;;;;;;;5.10;2.05;;;;;;;20.16;57.92;97256.22;10189348;29;20056;-55
2022/07/19 19:50:57;;;;;;;5.07;2.15;;;;;;;20.15;58.48;97251.94;10188716;29;20072;-55
2022/07/19 19:56:16;;;;;;;6.80;2.20;;;;;;;20.15;58.56;97251.94;10175483;29;20066;-56
2022/07/19 20:01:36;;;;;;;3.13;2.15;;;;;;;20.14;58.51;97256.53;10176626;29;20076;-55
2022/07/19 20:06:59;;;;;;;3.83;2.10;;;;;;;20.10;58.34;97249.38;10166317;29;20131;-55
2022/07/19 20:12:20;;;;;;;3.88;2.10;;;;;;;20.09;57.84;97254.00;10175579;29;20052;-55
2022/07/19 20:17:40;;;;;;;4.38;2.08;;;;;;;20.08;57.27;97251.59;10175272;29;20451;-55
2022/07/19 20:23:00;;;;;;;4.47;2.20;;;;;;;20.06;57.12;97260.03;10174908;29;20063;-56
2022/07/19 20:28:19;;;;;;;2.58;2.30;;;;;;;20.06;57.18;97259.22;10171054;29;20056;-56
2022/07/19 20:33:39;;;;;;;6.78;2.33;;;;;;;20.05;57.22;97257.63;10171802;29;20059;-55
2022/07/19 20:38:58;;;;;;;3.60;2.30;;;;;;;20.04;57.08;97256.06;10173716;29;20048;-57
2022/07/19 20:44:18;;;;;;;3.50;1.92;;;;;;;20.02;56.95;97250.94;10174182;29;20492;-56
2022/07/19 20:49:37;;;;;;;9.60;2.40;;;;;;;20.01;56.78;97252.06;10174042;29;20452;-55
2022/07/19 20:54:58;;;;;;;8.75;2.60;;;;;;;20.04;56.77;97245.22;10174031;29;20132;-55
2022/07/19 21:00:17;;;;;;;5.00;2.30;;;;;;;20.04;56.80;97250.66;10159671;29;20059;-54
2022/07/19 21:05:39;;;;;;;8.82;2.50;;;;;;;20.05;56.88;97249.50;10174307;29;20064;-55
2022/07/19 21:10:59;;;;;;;7.63;2.40;;;;;;;20.07;56.87;97241.88;10185850;29;20556;-55
2022/07/19 21:16:19;;;;;;;4.88;2.17;;;;;;;20.07;56.89;97239.19;10172525;29;20067;-56
2022/07/19 21:21:38;;;;;;;3.58;2.20;;;;;;;20.08;57.01;97244.28;10173191;29;20460;-56
2022/07/19 21:26:58;;;;;;;3.40;2.10;;;;;;;20.09;57.13;97251.28;10185627;29;20052;-57
2022/07/19 21:32:17;;;;;;;4.20;2.10;;;;;;;20.09;57.17;97247.78;10169827;29;20439;-57
2022/07/19 21:37:37;;;;;;;3.83;2.50;;;;;;;20.08;57.41;97252.38;10172970;29;20060;-56
2022/07/19 21:42:56;;;;;;;2.60;2.13;;;;;;;20.10;57.43;97255.56;10172235;29;20056;-56
2022/07/19 21:48:16;;;;;;;5.40;2.38;;;;;;;20.10;57.46;97266.38;10185148;29;20068;-56
2022/07/19 21:53:35;;;;;;;4.38;2.20;;;;;;;20.10;57.46;97254.78;10183899;29;20071;-55
2022/07/19 21:58:54;;;;;;;5.25;2.22;;;;;;;20.11;57.45;97264.47;10192505;29;20461;-56
2022/07/19 22:04:14;;;;;;;3.85;2.45;;;;;;;20.11;57.46;97250.94;10192929;29;20052;-56
2022/07/19 22:09:33;;;;;;;3.50;2.35;;;;;;;20.11;57.54;97259.06;10179884;29;20104;-57
2022/07/19 22:14:52;;;;;;;3.78;2.20;;;;;;;20.10;57.50;97260.97;10205877;29;20048;-56
2022/07/19 22:20:12;;;;;;;4.88;2.33;;;;;;;20.11;57.43;97259.06;10179754;29;20063;-56
2022/07/19 22:25:31;;;;;;;2.45;2.00;;;;;;;20.12;57.43;97255.25;10184730;29;20055;-56
2022/07/19 22:30:52;;;;;;;2.72;2.20;;;;;;;20.11;57.42;97264.47;10183207;29;20052;-56
2022/07/19 22:36:11;;;;;;;3.28;2.10;;;;;;;20.11;57.35;97269.88;10178869;29;20056;-56
2022/07/19 22:41:30;;;;;;;2.92;2.20;;;;;;;20.11;57.31;97269.88;10172538;29;20512;-56
2022/07/19 22:46:50;;;;;;;3.58;2.42;;;;;;;20.11;56.78;97272.59;10178276;29;20432;-56
2022/07/19 22:52:09;;;;;;;3.80;2.50;;;;;;;20.10;56.88;97279.91;10190971;29;20508;-56
2022/07/19 22:57:29;;;;;;;4.25;2.33;;;;;;;20.10;56.78;97274.50;10178663;29;20068;-56
2022/07/19 23:02:48;;;;;;;2.80;2.42;;;;;;;20.12;56.71;97274.19;10189729;29;20690;-57
2022/07/19 23:08:07;;;;;;;3.63;2.67;;;;;;;20.11;56.78;97273.41;10190518;29;20044;-56
2022/07/19 23:13:27;;;;;;;5.75;2.35;;;;;;;20.10;56.81;97273.72;10190205;29;20060;-56
2022/07/19 23:18:46;;;;;;;2.72;2.40;;;;;;;20.11;56.80;97261.78;10177726;29;20083;-57
2022/07/19 23:24:06;;;;;;;3.50;2.30;;;;;;;20.10;56.79;97274.50;10177401;29;20071;-56
2022/07/19 23:29:25;;;;;;;5.47;2.50;;;;;;;20.10;56.76;97269.09;10184609;29;20115;-56
2022/07/19 23:34:45;;;;;;;2.90;2.50;;;;;;;20.11;56.71;97256.34;10162016;29;20052;-56
2022/07/19 23:40:05;;;;;;;3.75;2.28;;;;;;;20.11;56.67;97256.34;10176911;29;20052;-56
2022/07/19 23:45:25;;;;;;;3.85;2.60;;;;;;;20.11;56.57;97259.06;10176792;29;20063;-56
2022/07/19 23:50:44;;;;;;;3.40;2.50;;;;;;;20.10;56.48;97258.28;10175787;29;20051;-56
2022/07/19 23:56:04;;;;;;;3.63;2.63;;;;;;;20.10;56.38;97265.59;10176327;29;20056;-56
